Search for airport 
image banner adimage banner ad
image banner ad

SISG - Aeroclube de Sergipe

Located in Aracaju, Brazil

ICAO - , IATA -

Data provided by Airmate  

General information

Coordinates: S10°54'5" W37°4'59"
Elevation is 26 feet MSL.
Magnetic variation is -23° East
View others Airports in Sergipe

Operational data

Open for public use
Current time UTC:
Current local time:
Weather at : SBAR - Santa Maria ( 9 km )
METAR: SBAR 310300Z 07008KT 9999 -RA FEW010 SCT013 BKN025 26/22 Q1012
TAF: TAF SBAR 302010Z 3100/3124 07010KT 9999 SCT020 TN24/3108Z TX30/3118Z BECMG 3102/3104 04007KT SCT015 BECMG 3106/3108 8000 BKN012 BECMG 3112/3113 08010KT 9999 SCT020 BECMG 3115/3116 10020KT 9999 FEW025 BECMG 3120/3121 08010KT RMK PGB
View NOTAMs / SUP AIP / TFR affecting this airport [VIEW]
Communications frequencies: [VIEW]

Runways:

RWY identifierQFULength (ft)Width (ft)SurfaceLDA (ft)
14164059GRASS
32164059GRASS

Airport contact information

Address: Aracaju Brazil

Satellite view of SISG